createdAt,value
2018-12-23T00:00:08.687Z,95.33
2018-12-23T00:01:08.673Z,95.22
2018-12-23T00:02:08.662Z,95.01
2018-12-23T00:03:08.653Z,95.12
2018-12-23T00:04:08.640Z,95.37
2018-12-23T00:05:11.529Z,95.58
2018-12-23T00:06:08.621Z,95.98
2018-12-23T00:07:08.609Z,96.19
2018-12-23T00:08:08.597Z,96.19
2018-12-23T00:09:08.586Z,96.19
2018-12-23T00:10:08.578Z,96.09
2018-12-23T00:11:08.565Z,95.78
2018-12-23T00:12:08.554Z,95.78
2018-12-23T00:13:08.544Z,95.67
2018-12-23T00:14:08.531Z,95.67
2018-12-23T00:15:08.522Z,95.78
2018-12-23T00:16:08.509Z,95.88
2018-12-23T00:17:08.500Z,95.98
2018-12-23T00:18:08.487Z,96.05
2018-12-23T00:19:08.478Z,96.05
2018-12-23T00:20:08.546Z,95.73
2018-12-23T00:21:08.456Z,95.53
2018-12-23T00:22:08.445Z,95.53
2018-12-23T00:23:08.434Z,95.63
2018-12-23T00:24:08.424Z,95.84
2018-12-23T00:25:08.412Z,95.84
2018-12-23T00:26:08.401Z,95.94
2018-12-23T00:27:08.389Z,95.80
2018-12-23T00:28:08.378Z,95.69
2018-12-23T00:29:08.368Z,95.59
2018-12-23T00:30:08.355Z,95.69
2018-12-23T00:31:08.345Z,94.97
2018-12-23T00:32:08.335Z,95.42
2018-12-23T00:33:08.324Z,95.17
2018-12-23T00:34:08.313Z,95.17
2018-12-23T00:35:08.302Z,94.25
2018-12-23T00:36:08.291Z,94.45
2018-12-23T00:37:08.281Z,94.66
2018-12-23T00:38:08.272Z,94.56
2018-12-23T00:39:08.257Z,94.97
2018-12-23T00:40:08.246Z,95.28
2018-12-23T00:41:08.246Z,93.12
2018-12-23T00:42:08.226Z,93.94
2018-12-23T00:43:08.214Z,94.45
2018-12-23T00:44:08.204Z,94.97
2018-12-23T00:45:08.194Z,95.12
2018-12-23T00:46:08.192Z,94.19
2018-12-23T00:47:08.171Z,94.40
2018-12-23T00:48:08.159Z,95.12
2018-12-23T00:49:08.152Z,95.01
2018-12-23T00:50:08.136Z,95.01
2018-12-23T00:51:08.126Z,95.12
2018-12-23T00:52:08.116Z,95.01
2018-12-23T00:53:08.106Z,95.26
2018-12-23T00:54:08.092Z,95.67
2018-12-23T00:55:08.085Z,95.78
2018-12-23T00:56:08.072Z,95.88
2018-12-23T00:57:08.062Z,95.37
2018-12-23T00:58:08.051Z,95.16
2018-12-23T00:59:08.038Z,95.62
2018-12-23T01:00:08.028Z,96.13
2018-12-23T01:01:08.018Z,96.44
2018-12-23T01:02:08.007Z,96.75
2018-12-23T01:03:07.996Z,96.80
2018-12-23T01:04:07.987Z,97.21
2018-12-23T01:05:07.975Z,97.41
2018-12-23T01:06:07.963Z,97.52
2018-12-23T01:07:07.954Z,97.72
2018-12-23T01:08:07.944Z,97.62
2018-12-23T01:09:07.930Z,97.62
2018-12-23T01:10:07.919Z,97.52
2018-12-23T01:11:07.907Z,97.52
2018-12-23T01:12:07.905Z,97.62
2018-12-23T01:13:08.005Z,97.72
2018-12-23T01:14:07.874Z,97.72
2018-12-23T01:15:07.868Z,97.93
2018-12-23T01:16:07.854Z,97.93
2018-12-23T01:17:07.842Z,98.03
2018-12-23T01:18:07.831Z,98.03
2018-12-23T01:19:07.821Z,98.13
2018-12-23T01:20:07.810Z,98.13
2018-12-23T01:21:07.799Z,98.03
2018-12-23T01:22:07.789Z,98.18
2018-12-23T01:23:07.776Z,98.39
2018-12-23T01:24:07.766Z,98.59
2018-12-23T01:25:07.756Z,98.59
2018-12-23T01:26:07.778Z,98.69
2018-12-23T01:27:07.737Z,98.90
2018-12-23T01:28:07.723Z,99.11
2018-12-23T01:29:07.711Z,99.01
2018-12-23T01:30:07.701Z,99.21
2018-12-23T01:31:07.689Z,99.21
2018-12-23T01:32:07.678Z,99.32
2018-12-23T01:33:07.667Z,99.52
2018-12-23T01:34:07.656Z,99.37
2018-12-23T01:35:07.646Z,99.37
2018-12-23T01:36:07.634Z,99.37
2018-12-23T01:37:07.625Z,99.27
2018-12-23T01:38:07.616Z,99.16
2018-12-23T01:39:07.605Z,99.16
2018-12-23T01:40:07.592Z,99.06
2018-12-23T01:41:07.582Z,98.86
2018-12-23T01:42:07.570Z,98.65
2018-12-23T01:43:07.560Z,98.40
2018-12-23T01:44:07.548Z,98.30
2018-12-23T01:45:07.537Z,97.99
2018-12-23T01:46:07.527Z,97.93
2018-12-23T01:47:07.514Z,97.88
2018-12-23T01:48:07.506Z,97.99
2018-12-23T01:49:07.494Z,97.99
2018-12-23T01:50:07.480Z,98.09
2018-12-23T01:51:07.472Z,98.09
2018-12-23T01:52:07.459Z,97.99
2018-12-23T01:53:07.449Z,97.78
2018-12-23T01:54:07.439Z,97.72
2018-12-23T01:55:07.425Z,97.93
2018-12-23T01:56:07.417Z,98.03
2018-12-23T01:57:07.407Z,98.13
2018-12-23T01:58:07.394Z,98.13
2018-12-23T01:59:07.388Z,98.44
2018-12-23T02:00:07.371Z,98.65
2018-12-23T02:01:07.361Z,98.86
2018-12-23T02:02:07.351Z,98.86
2018-12-23T02:03:07.355Z,98.86
2018-12-23T02:04:07.328Z,98.96
2018-12-23T02:05:07.321Z,98.86
2018-12-23T02:06:07.307Z,98.86
2018-12-23T02:07:07.297Z,98.96
2018-12-23T02:08:07.284Z,98.96
2018-12-23T02:09:07.276Z,98.96
2018-12-23T02:10:07.265Z,98.86
2018-12-23T02:11:07.251Z,98.86
2018-12-23T02:12:07.360Z,98.86
2018-12-23T02:13:07.232Z,98.96
2018-12-23T02:14:07.230Z,98.96
2018-12-23T02:15:07.209Z,98.86
2018-12-23T02:16:07.202Z,98.76
2018-12-23T02:17:07.186Z,98.44
2018-12-23T02:18:07.178Z,98.24
2018-12-23T02:19:07.166Z,98.13
2018-12-23T02:20:07.159Z,98.13
2018-12-23T02:21:07.145Z,98.03
2018-12-23T02:22:07.131Z,98.03
2018-12-23T02:23:07.122Z,98.03
2018-12-23T02:24:07.108Z,98.03
2018-12-23T02:25:07.101Z,97.93
2018-12-23T02:26:07.088Z,97.93
2018-12-23T02:27:07.077Z,97.93
2018-12-23T02:28:07.067Z,97.93
2018-12-23T02:29:07.057Z,97.83
2018-12-23T02:30:07.044Z,97.83
2018-12-23T02:31:07.035Z,97.72
2018-12-23T02:32:07.022Z,97.93
2018-12-23T02:33:07.015Z,98.03
2018-12-23T02:34:07.001Z,98.03
2018-12-23T02:35:06.988Z,98.13
2018-12-23T02:36:06.977Z,98.24
2018-12-23T02:37:06.969Z,98.24
2018-12-23T02:38:06.956Z,98.24
2018-12-23T02:39:06.944Z,98.34
2018-12-23T02:40:06.941Z,98.34
2018-12-23T02:41:06.923Z,98.44
2018-12-23T02:42:06.911Z,98.44
2018-12-23T02:43:06.901Z,98.34
2018-12-23T02:44:06.891Z,98.44
2018-12-23T02:45:06.895Z,98.55
2018-12-23T02:46:06.868Z,98.55
2018-12-23T02:47:06.860Z,98.55
2018-12-23T02:48:06.846Z,98.76
2018-12-23T02:49:06.834Z,98.76
2018-12-23T02:50:06.829Z,98.86
2018-12-23T02:51:06.817Z,98.86
2018-12-23T02:52:06.801Z,98.71
2018-12-23T02:53:06.793Z,98.71
2018-12-23T02:54:06.786Z,98.50
2018-12-23T02:55:06.774Z,98.50
2018-12-23T02:56:06.764Z,98.40
2018-12-23T02:57:06.747Z,98.30
2018-12-23T02:58:06.740Z,98.19
2018-12-23T02:59:06.727Z,97.99
2018-12-23T03:00:06.715Z,97.88
2018-12-23T03:01:06.706Z,97.88
2018-12-23T03:02:06.694Z,97.88
2018-12-23T03:03:06.683Z,97.99
2018-12-23T03:04:06.672Z,97.99
2018-12-23T03:05:06.661Z,97.99
2018-12-23T03:06:06.652Z,98.19
2018-12-23T03:07:06.640Z,98.09
2018-12-23T03:08:06.625Z,98.30
2018-12-23T03:09:06.616Z,98.19
2018-12-23T03:10:06.605Z,98.13
2018-12-23T03:11:06.593Z,98.24
2018-12-23T03:12:06.581Z,98.24
2018-12-23T03:13:06.571Z,98.24
2018-12-23T03:14:06.562Z,98.24
2018-12-23T03:15:06.551Z,98.34
2018-12-23T03:16:06.539Z,98.34
2018-12-23T03:17:06.530Z,98.44
2018-12-23T03:18:06.517Z,98.55
2018-12-23T03:19:06.510Z,98.65
2018-12-23T03:20:06.496Z,98.76
2018-12-23T03:21:06.487Z,98.76
2018-12-23T03:22:06.475Z,98.76
2018-12-23T03:23:06.465Z,98.65
2018-12-23T03:24:06.453Z,98.65
2018-12-23T03:25:06.446Z,98.65
2018-12-23T03:26:06.429Z,98.65
2018-12-23T03:27:06.423Z,98.65
2018-12-23T03:28:06.427Z,98.55
2018-12-23T03:29:06.405Z,98.59
2018-12-23T03:30:06.386Z,98.69
2018-12-23T03:31:06.378Z,98.69
2018-12-23T03:32:06.366Z,98.76
2018-12-23T03:33:06.358Z,98.76
2018-12-23T03:34:06.343Z,98.86
2018-12-23T03:35:06.332Z,98.76
2018-12-23T03:36:14.733Z,98.76
2018-12-23T03:37:27.493Z,98.65
2018-12-23T03:38:27.481Z,98.55
2018-12-23T03:39:27.471Z,98.44
2018-12-23T03:40:27.459Z,97.93
2018-12-23T03:41:27.451Z,97.41
2018-12-23T03:42:27.446Z,97.41
2018-12-23T03:43:27.428Z,97.52
2018-12-23T03:44:27.417Z,97.56
2018-12-23T03:45:27.404Z,97.77
2018-12-23T03:46:27.396Z,97.83
2018-12-23T03:47:27.385Z,97.83
2018-12-23T03:48:27.372Z,97.87
2018-12-23T03:49:27.361Z,97.87
2018-12-23T03:50:27.351Z,97.97
2018-12-23T03:51:27.339Z,98.08
2018-12-23T03:52:27.329Z,98.03
2018-12-23T03:53:27.317Z,98.03
2018-12-23T03:54:27.307Z,98.03
2018-12-23T03:55:27.297Z,97.83
2018-12-23T03:56:27.367Z,97.87
2018-12-23T03:57:27.275Z,97.77
2018-12-23T03:58:27.272Z,97.77
2018-12-23T03:59:27.252Z,97.77
2018-12-23T04:00:27.244Z,97.77
2018-12-23T04:01:27.230Z,97.77
2018-12-23T04:02:27.223Z,97.87
2018-12-23T04:03:27.213Z,97.97
2018-12-23T04:04:27.200Z,98.18
2018-12-23T04:05:27.187Z,98.18
2018-12-23T04:06:27.178Z,98.08
2018-12-23T04:07:27.164Z,98.18
2018-12-23T04:08:27.154Z,98.08
2018-12-23T04:09:27.144Z,98.18
2018-12-23T04:10:27.133Z,98.08
2018-12-23T04:11:27.121Z,98.18
2018-12-23T04:12:27.111Z,98.18
2018-12-23T04:13:27.103Z,98.29
2018-12-23T04:14:27.089Z,98.18
2018-12-23T04:15:27.079Z,98.18
2018-12-23T04:16:27.070Z,98.22
2018-12-23T04:17:27.057Z,98.12
2018-12-23T04:18:27.045Z,98.22
2018-12-23T04:19:27.035Z,98.33
2018-12-23T04:20:27.024Z,98.43
2018-12-23T04:21:27.021Z,98.64
2018-12-23T04:22:27.003Z,98.74
2018-12-23T04:23:26.992Z,98.85
2018-12-23T04:24:26.982Z,98.95
2018-12-23T04:25:26.970Z,98.95
2018-12-23T04:26:26.957Z,99.20
2018-12-23T04:27:26.950Z,99.36
2018-12-23T04:28:26.942Z,99.57
2018-12-23T04:29:26.924Z,99.67
2018-12-23T04:30:26.914Z,99.57
2018-12-23T04:31:26.904Z,99.67
2018-12-23T04:32:26.892Z,99.78
2018-12-23T04:33:26.882Z,99.78
2018-12-23T04:34:26.871Z,99.78
2018-12-23T04:35:26.863Z,99.73
2018-12-23T04:36:34.063Z,99.67
2018-12-23T04:37:48.020Z,99.62
2018-12-23T04:38:48.006Z,99.62
2018-12-23T04:39:47.996Z,99.52
2018-12-23T04:40:47.987Z,99.42
2018-12-23T04:41:47.974Z,99.21
2018-12-23T04:42:47.969Z,99.21
2018-12-23T04:43:47.956Z,99.11
2018-12-23T04:44:47.943Z,98.96
2018-12-23T04:45:47.930Z,98.86
2018-12-23T04:46:47.921Z,98.65
2018-12-23T04:47:47.911Z,98.44
2018-12-23T04:48:47.897Z,98.13
2018-12-23T04:49:47.887Z,97.93
2018-12-23T04:50:47.880Z,97.83
2018-12-23T04:51:47.866Z,97.83
2018-12-23T04:52:47.855Z,97.93
2018-12-23T04:53:47.847Z,98.03
2018-12-23T04:54:47.835Z,98.03
2018-12-23T04:55:47.829Z,97.93
2018-12-23T04:56:47.810Z,97.93
2018-12-23T04:57:47.801Z,97.93
2018-12-23T04:58:47.789Z,98.03
2018-12-23T04:59:47.779Z,97.99
2018-12-23T05:00:47.769Z,97.88
2018-12-23T05:01:47.756Z,97.88
2018-12-23T05:02:47.747Z,97.78
2018-12-23T05:03:47.734Z,97.58
2018-12-23T05:04:47.723Z,97.58
2018-12-23T05:05:47.712Z,97.62
2018-12-23T05:06:47.702Z,97.83
2018-12-23T05:07:47.690Z,97.78
2018-12-23T05:08:47.773Z,97.68
2018-12-23T05:09:47.667Z,97.78
2018-12-23T05:10:47.657Z,97.78
2018-12-23T05:11:47.647Z,97.47
2018-12-23T05:12:47.633Z,97.37
2018-12-23T05:13:47.623Z,97.37
2018-12-23T05:14:47.614Z,97.37
2018-12-23T05:15:47.604Z,97.06
2018-12-23T05:16:47.591Z,97.06
2018-12-23T05:17:47.578Z,97.06
2018-12-23T05:18:47.570Z,96.85
2018-12-23T05:19:47.558Z,96.85
2018-12-23T05:20:47.547Z,96.85
2018-12-23T05:21:47.535Z,96.55
2018-12-23T05:22:47.525Z,96.44
2018-12-23T05:23:47.512Z,96.34
2018-12-23T05:24:47.501Z,96.13
2018-12-23T05:25:47.594Z,96.13
2018-12-23T05:26:47.486Z,96.13
2018-12-23T05:27:47.469Z,96.24
2018-12-23T05:28:47.460Z,96.24
2018-12-23T05:29:47.445Z,96.03
2018-12-23T05:30:47.434Z,95.92
2018-12-23T05:31:47.425Z,95.92
2018-12-23T05:32:47.412Z,96.13
2018-12-23T05:33:47.404Z,96.24
2018-12-23T05:34:47.390Z,96.24
2018-12-23T05:35:47.379Z,96.38
2018-12-23T05:36:52.305Z,96.38
2018-12-23T05:37:47.358Z,96.59
2018-12-23T05:38:47.347Z,96.69
2018-12-23T05:39:47.333Z,96.90
2018-12-23T05:40:47.326Z,97.00
2018-12-23T05:41:47.315Z,97.10
2018-12-23T05:42:47.305Z,97.21
2018-12-23T05:43:47.291Z,97.21
2018-12-23T05:44:47.278Z,97.10
2018-12-23T05:45:47.268Z,97.10
2018-12-23T05:46:47.257Z,97.00
2018-12-23T05:47:47.245Z,96.90
2018-12-23T05:48:47.235Z,96.90
2018-12-23T05:49:47.226Z,96.80
2018-12-23T05:50:47.211Z,96.80
2018-12-23T05:51:47.201Z,96.90
2018-12-23T05:52:47.191Z,97.00
2018-12-23T05:53:47.180Z,96.80
2018-12-23T05:54:47.169Z,96.69
2018-12-23T05:55:47.158Z,96.49
2018-12-23T05:56:47.150Z,96.65
2018-12-23T05:57:47.142Z,96.65
2018-12-23T05:58:47.123Z,96.55
2018-12-23T05:59:47.113Z,96.44
2018-12-23T06:00:47.104Z,96.55
2018-12-23T06:01:47.091Z,96.75
2018-12-23T06:02:47.078Z,96.96
2018-12-23T06:03:47.069Z,97.00
2018-12-23T06:04:47.057Z,97.00
2018-12-23T06:05:47.047Z,97.10
2018-12-23T06:06:47.034Z,97.21
2018-12-23T06:07:47.023Z,97.41
2018-12-23T06:08:47.012Z,97.56
2018-12-23T06:09:47.003Z,97.66
2018-12-23T06:10:46.989Z,97.87
2018-12-23T06:11:46.980Z,97.97
2018-12-23T06:12:46.969Z,98.29
2018-12-23T06:13:46.957Z,98.39
2018-12-23T06:14:46.945Z,98.39
2018-12-23T06:15:46.934Z,98.49
2018-12-23T06:16:46.925Z,98.55
2018-12-23T06:17:46.912Z,98.34
2018-12-23T06:18:46.901Z,97.93
2018-12-23T06:19:46.890Z,97.72
2018-12-23T06:20:46.882Z,97.72
2018-12-23T06:21:46.873Z,97.52
2018-12-23T06:22:46.857Z,97.62
2018-12-23T06:23:46.848Z,97.83
2018-12-23T06:24:46.834Z,98.03
2018-12-23T06:25:46.828Z,98.13
2018-12-23T06:26:46.811Z,98.18
2018-12-23T06:27:46.800Z,98.29
2018-12-23T06:28:46.791Z,98.49
2018-12-23T06:29:46.779Z,98.24
2018-12-23T06:30:46.770Z,98.03
2018-12-23T06:31:46.756Z,97.72
2018-12-23T06:32:46.747Z,97.41
2018-12-23T06:33:46.735Z,97.10
2018-12-23T06:34:46.727Z,96.80
2018-12-23T06:35:46.714Z,96.55
2018-12-23T06:36:46.707Z,96.34
2018-12-23T06:37:46.689Z,96.03
2018-12-23T06:38:46.682Z,95.92
2018-12-23T06:39:46.667Z,95.92
2018-12-23T06:40:46.657Z,95.92
2018-12-23T06:41:46.645Z,95.92
2018-12-23T06:42:46.634Z,95.92
2018-12-23T06:43:46.626Z,96.03
2018-12-23T06:44:46.614Z,96.13
2018-12-23T06:45:46.600Z,96.13
2018-12-23T06:46:46.590Z,96.34
2018-12-23T06:47:46.579Z,96.24
2018-12-23T06:48:46.568Z,96.44
2018-12-23T06:49:46.557Z,96.44
2018-12-23T06:50:46.546Z,96.44
2018-12-23T06:51:46.536Z,96.65
2018-12-23T06:52:46.534Z,96.65
2018-12-23T06:53:46.514Z,96.75
2018-12-23T06:54:46.500Z,96.75
2018-12-23T06:55:46.489Z,96.96
2018-12-23T06:56:46.479Z,96.96
2018-12-23T06:57:46.477Z,96.96
2018-12-23T06:58:46.458Z,96.96
2018-12-23T06:59:46.447Z,96.96
2018-12-23T07:00:46.433Z,96.75
2018-12-23T07:01:46.424Z,96.85
2018-12-23T07:02:46.411Z,96.85
2018-12-23T07:03:46.400Z,96.75
2018-12-23T07:04:46.390Z,96.65
2018-12-23T07:05:46.379Z,96.65
2018-12-23T07:06:46.368Z,96.44
2018-12-23T07:07:46.356Z,96.44
2018-12-23T07:08:46.348Z,96.55
2018-12-23T07:09:46.341Z,96.65
2018-12-23T07:10:46.330Z,96.65
2018-12-23T07:11:46.313Z,96.75
2018-12-23T07:12:46.301Z,96.75
2018-12-23T07:13:46.294Z,96.55
2018-12-23T07:14:46.282Z,96.44
2018-12-23T07:15:46.270Z,96.44
2018-12-23T07:16:46.258Z,96.34
2018-12-23T07:17:46.247Z,96.19
2018-12-23T07:18:46.235Z,96.24
2018-12-23T07:19:46.230Z,96.34
2018-12-23T07:20:46.213Z,96.44
2018-12-23T07:21:46.204Z,96.65
2018-12-23T07:22:46.194Z,96.85
2018-12-23T07:23:46.181Z,97.16
2018-12-23T07:24:46.172Z,97.16
2018-12-23T07:25:46.160Z,97.16
2018-12-23T07:26:46.145Z,97.16
2018-12-23T07:27:46.142Z,97.16
2018-12-23T07:28:46.127Z,97.06
2018-12-23T07:29:46.116Z,97.06
2018-12-23T07:30:46.105Z,96.96
2018-12-23T07:31:46.090Z,96.96
2018-12-23T07:32:46.084Z,96.65
2018-12-23T07:33:46.075Z,96.44
2018-12-23T07:34:46.061Z,96.24
2018-12-23T07:35:46.049Z,96.13
2018-12-23T07:36:49.748Z,96.03
2018-12-23T07:37:46.027Z,96.03
2018-12-23T07:38:46.020Z,96.03
2018-12-23T07:39:46.023Z,96.24
2018-12-23T07:40:45.993Z,96.65
2018-12-23T07:41:45.981Z,96.75
2018-12-23T07:42:45.970Z,96.96
2018-12-23T07:43:45.960Z,97.10
2018-12-23T07:44:45.954Z,97.16
2018-12-23T07:45:45.946Z,97.27
2018-12-23T07:46:45.924Z,97.27
2018-12-23T07:47:45.914Z,97.27
2018-12-23T07:48:45.903Z,97.27
2018-12-23T07:49:45.904Z,97.06
2018-12-23T07:50:45.879Z,96.96
2018-12-23T07:51:45.875Z,97.16
2018-12-23T07:52:45.860Z,97.06
2018-12-23T07:53:45.846Z,97.06
2018-12-23T07:54:45.834Z,97.06
2018-12-23T07:55:45.827Z,96.75
2018-12-23T07:56:45.818Z,96.75
2018-12-23T07:57:45.803Z,96.65
2018-12-23T07:58:45.906Z,96.75
2018-12-23T07:59:45.782Z,96.85
2018-12-23T08:00:45.772Z,96.85
2018-12-23T08:01:45.762Z,96.96
2018-12-23T08:02:45.748Z,96.96
2018-12-23T08:03:45.735Z,96.91
2018-12-23T08:04:45.730Z,96.91
2018-12-23T08:05:45.714Z,96.81
2018-12-23T08:06:45.706Z,96.81
2018-12-23T08:07:45.693Z,96.60
2018-12-23T08:08:45.684Z,96.50
2018-12-23T08:09:45.669Z,96.19
2018-12-23T08:10:45.659Z,95.98
2018-12-23T08:11:45.656Z,95.78
2018-12-23T08:12:45.636Z,95.67
2018-12-23T08:13:45.625Z,95.47
2018-12-23T08:14:45.614Z,95.47
2018-12-23T08:15:45.603Z,95.37
2018-12-23T08:16:45.595Z,95.47
2018-12-23T08:17:45.581Z,95.63
2018-12-23T08:18:45.571Z,95.67
2018-12-23T08:19:45.559Z,95.73
2018-12-23T08:20:45.558Z,95.63
2018-12-23T08:21:45.542Z,95.73
2018-12-23T08:22:45.539Z,95.84
2018-12-23T08:23:45.517Z,95.84
2018-12-23T08:24:45.508Z,95.88
2018-12-23T08:25:45.493Z,96.09
2018-12-23T08:26:45.484Z,96.19
2018-12-23T08:27:45.469Z,96.30
2018-12-23T08:28:45.459Z,96.30
2018-12-23T08:29:45.449Z,96.40
2018-12-23T08:30:45.438Z,96.60
2018-12-23T08:31:45.426Z,96.71
2018-12-23T08:32:45.416Z,96.71
2018-12-23T08:33:45.405Z,96.71
2018-12-23T08:34:45.394Z,96.60
2018-12-23T08:35:45.382Z,96.60
2018-12-23T08:36:45.372Z,96.40
2018-12-23T08:37:45.376Z,96.19
2018-12-23T08:38:45.354Z,96.30
2018-12-23T08:39:45.350Z,96.30
2018-12-23T08:40:45.332Z,96.30
2018-12-23T08:41:45.314Z,96.40
2018-12-23T08:42:45.304Z,96.50
2018-12-23T08:43:45.292Z,96.50
2018-12-23T08:44:45.292Z,96.40
2018-12-23T08:45:45.275Z,96.40
2018-12-23T08:46:45.260Z,96.40
2018-12-23T08:47:45.248Z,96.35
2018-12-23T08:48:45.238Z,96.25
2018-12-23T08:49:45.226Z,96.14
2018-12-23T08:50:45.215Z,95.94
2018-12-23T08:51:45.912Z,96.05
2018-12-23T08:52:45.194Z,96.14
2018-12-23T08:53:45.183Z,96.25
2018-12-23T08:54:45.171Z,96.25
2018-12-23T08:55:45.160Z,96.35
2018-12-23T08:56:45.149Z,96.35
2018-12-23T08:57:45.136Z,96.35
2018-12-23T08:58:45.129Z,96.25
2018-12-23T08:59:45.125Z,96.14
2018-12-23T09:00:45.107Z,96.25
2018-12-23T09:01:45.096Z,96.25
2018-12-23T09:02:45.081Z,96.35
2018-12-23T09:03:45.070Z,96.35
2018-12-23T09:04:45.060Z,96.35
2018-12-23T09:05:45.048Z,96.05
2018-12-23T09:06:45.037Z,95.84
2018-12-23T09:07:52.827Z,95.84
2018-12-23T09:09:06.197Z,95.80
2018-12-23T09:10:06.185Z,95.69
2018-12-23T09:11:06.180Z,95.48
2018-12-23T09:12:06.164Z,95.38
2018-12-23T09:13:06.152Z,95.38
2018-12-23T09:14:06.143Z,95.17
2018-12-23T09:15:06.133Z,95.38
2018-12-23T09:16:06.120Z,95.38
2018-12-23T09:17:06.108Z,95.28
2018-12-23T09:18:06.099Z,95.48
2018-12-23T09:19:06.088Z,95.28
2018-12-23T09:20:06.075Z,95.08
2018-12-23T09:21:06.068Z,95.08
2018-12-23T09:22:06.055Z,95.17
2018-12-23T09:23:06.042Z,95.17
2018-12-23T09:24:06.032Z,94.97
2018-12-23T09:25:06.020Z,94.83
2018-12-23T09:26:06.012Z,94.72
2018-12-23T09:27:06.000Z,94.83
2018-12-23T09:28:05.994Z,94.72
2018-12-23T09:29:05.980Z,94.72
2018-12-23T09:30:05.970Z,94.83
2018-12-23T09:31:05.957Z,94.51
2018-12-23T09:32:05.949Z,94.31
2018-12-23T09:33:05.935Z,94.37
2018-12-23T09:34:05.926Z,93.85
2018-12-23T09:35:05.913Z,93.85
2018-12-23T09:36:05.902Z,93.75
2018-12-23T09:37:05.891Z,92.73
2018-12-23T09:38:05.882Z,92.62
2018-12-23T09:39:05.874Z,92.88
2018-12-23T09:40:05.857Z,92.99
2018-12-23T09:41:05.845Z,93.30
2018-12-23T09:42:05.835Z,92.99
2018-12-23T09:43:05.826Z,92.58
2018-12-23T09:44:05.814Z,92.37
2018-12-23T09:45:05.802Z,92.84
2018-12-23T09:46:05.792Z,92.84
2018-12-23T09:47:05.780Z,93.15
2018-12-23T09:48:05.770Z,92.84
2018-12-23T09:49:05.758Z,92.43
2018-12-23T09:50:05.748Z,92.39
2018-12-23T09:51:05.739Z,92.90
2018-12-23T09:52:05.727Z,92.59
2018-12-23T09:53:05.715Z,92.02
2018-12-23T09:54:05.704Z,92.43
2018-12-23T09:55:05.693Z,93.25
2018-12-23T09:56:05.681Z,92.63
2018-12-23T09:57:05.669Z,92.95
2018-12-23T09:58:05.659Z,93.77
2018-12-23T09:59:05.650Z,94.03
2018-12-23T10:00:05.639Z,93.01
2018-12-23T10:01:05.625Z,92.90
2018-12-23T10:02:05.615Z,92.80
2018-12-23T10:03:05.605Z,92.49
2018-12-23T10:04:05.593Z,92.54
2018-12-23T10:05:05.583Z,92.74
2018-12-23T10:06:05.573Z,92.74
2018-12-23T10:07:05.568Z,93.72
2018-12-23T10:08:09.961Z,92.59
2018-12-23T10:09:05.540Z,92.33
2018-12-23T10:10:05.530Z,93.11
2018-12-23T10:11:05.517Z,93.11
2018-12-23T10:12:05.508Z,91.98
2018-12-23T10:13:05.497Z,90.54
2018-12-23T10:14:05.484Z,91.16
2018-12-23T10:15:05.474Z,91.26
2018-12-23T10:16:05.463Z,90.75
2018-12-23T10:17:05.452Z,91.46
2018-12-23T10:18:05.442Z,92.18
2018-12-23T10:19:05.429Z,92.18
2018-12-23T10:20:05.421Z,92.80
2018-12-23T10:21:05.408Z,92.24
2018-12-23T10:22:05.398Z,91.01
2018-12-23T10:23:05.390Z,91.11
2018-12-23T10:24:05.382Z,91.42
2018-12-23T10:25:05.368Z,91.11
2018-12-23T10:26:05.356Z,92.04
2018-12-23T10:27:05.345Z,91.73
2018-12-23T10:28:05.333Z,90.91
2018-12-23T10:29:05.322Z,90.91
2018-12-23T10:30:05.310Z,91.11
2018-12-23T10:31:05.299Z,90.50
2018-12-23T10:32:05.304Z,89.37
2018-12-23T10:33:05.277Z,89.47
2018-12-23T10:34:05.265Z,89.68
2018-12-23T10:35:05.256Z,88.86
2018-12-23T10:36:05.246Z,88.86
2018-12-23T10:37:05.235Z,89.47
2018-12-23T10:38:05.223Z,89.78
2018-12-23T10:39:05.215Z,90.39
2018-12-23T10:40:05.202Z,91.42
2018-12-23T10:41:05.192Z,90.86
2018-12-23T10:42:05.179Z,89.84
2018-12-23T10:43:05.167Z,90.66
2018-12-23T10:44:05.159Z,90.86
2018-12-23T10:45:05.160Z,91.34
2018-12-23T10:46:05.135Z,88.78
2018-12-23T10:47:05.125Z,88.87
2018-12-23T10:48:05.116Z,89.02
2018-12-23T10:49:05.103Z,89.53
2018-12-23T10:50:05.093Z,88.00
2018-12-23T10:51:05.082Z,89.12
2018-12-23T10:52:05.074Z,89.17
2018-12-23T10:53:05.059Z,90.56
2018-12-23T10:54:05.050Z,90.15
2018-12-23T10:55:05.044Z,89.74
2018-12-23T10:56:05.028Z,89.64
2018-12-23T10:57:05.014Z,89.64
2018-12-23T10:58:05.005Z,89.43
2018-12-23T10:59:04.993Z,89.23
2018-12-23T11:00:04.983Z,89.02
2018-12-23T11:01:04.973Z,89.53
2018-12-23T11:02:13.439Z,88.81
2018-12-23T11:03:26.131Z,89.33
2018-12-23T11:04:26.117Z,89.94
2018-12-23T11:05:26.107Z,90.05
2018-12-23T11:06:26.097Z,90.05
2018-12-23T11:07:26.086Z,90.05
2018-12-23T11:08:27.087Z,90.15
2018-12-23T11:09:26.065Z,90.25
2018-12-23T11:10:26.053Z,89.99
2018-12-23T11:11:26.043Z,89.37
2018-12-23T11:12:26.031Z,89.37
2018-12-23T11:13:26.020Z,90.19
2018-12-23T11:14:26.007Z,90.30
2018-12-23T11:15:25.996Z,90.77
2018-12-23T11:16:25.987Z,90.86
2018-12-23T11:17:25.974Z,86.87
2018-12-23T11:18:25.963Z,85.74
2018-12-23T11:19:25.958Z,85.84
2018-12-23T11:20:25.942Z,86.25
2018-12-23T11:21:25.930Z,86.76
2018-12-23T11:22:25.919Z,87.28
2018-12-23T11:23:25.909Z,87.79
2018-12-23T11:24:25.896Z,88.10
2018-12-23T11:25:25.885Z,88.81
2018-12-23T11:26:25.874Z,89.02
2018-12-23T11:27:25.862Z,90.05
2018-12-23T11:28:25.852Z,89.33
2018-12-23T11:29:25.840Z,88.81
2018-12-23T11:30:25.829Z,89.33
2018-12-23T11:31:25.818Z,89.23
2018-12-23T11:32:25.806Z,89.12
2018-12-23T11:33:25.795Z,90.46
2018-12-23T11:34:25.784Z,90.35
2018-12-23T11:35:25.771Z,89.53
2018-12-23T11:36:25.762Z,89.64
2018-12-23T11:37:25.752Z,89.49
2018-12-23T11:38:25.738Z,89.08
2018-12-23T11:39:25.747Z,89.19
2018-12-23T11:40:25.717Z,88.06
2018-12-23T11:41:25.705Z,88.87
2018-12-23T11:42:25.694Z,88.57
2018-12-23T11:43:25.686Z,88.06
2018-12-23T11:44:25.673Z,87.95
2018-12-23T11:45:25.661Z,88.67
2018-12-23T11:46:25.654Z,89.80
2018-12-23T11:47:25.639Z,89.59
2018-12-23T11:48:25.628Z,89.39
2018-12-23T11:49:25.615Z,89.90
2018-12-23T11:50:25.606Z,89.90
2018-12-23T11:51:25.593Z,89.70
2018-12-23T11:52:25.585Z,90.05
2018-12-23T11:53:25.574Z,87.48
2018-12-23T11:54:25.563Z,89.49
2018-12-23T11:55:25.554Z,89.70
2018-12-23T11:56:25.538Z,90.15
2018-12-23T11:57:25.528Z,89.64
2018-12-23T11:58:25.516Z,90.66
2018-12-23T11:59:25.508Z,91.28
2018-12-23T12:00:25.498Z,92.71
2018-12-23T12:01:25.486Z,92.20
2018-12-23T12:02:25.472Z,92.30
2018-12-23T12:03:25.461Z,92.71
2018-12-23T12:04:25.470Z,92.41
2018-12-23T12:05:25.439Z,90.97
2018-12-23T12:06:25.428Z,90.66
2018-12-23T12:07:25.418Z,90.77
2018-12-23T12:08:25.412Z,91.11
2018-12-23T12:09:25.394Z,91.32
2018-12-23T12:10:25.382Z,92.14
2018-12-23T12:11:25.373Z,91.52
2018-12-23T12:12:25.361Z,91.52
2018-12-23T12:13:25.351Z,91.42
2018-12-23T12:14:25.346Z,91.73
2018-12-23T12:15:25.327Z,89.58
2018-12-23T12:16:25.317Z,90.81
2018-12-23T12:17:25.444Z,91.32
2018-12-23T12:18:25.296Z,91.42
2018-12-23T12:19:25.286Z,91.52
2018-12-23T12:20:25.275Z,92.20
2018-12-23T12:21:25.264Z,91.48
2018-12-23T12:22:25.253Z,90.50
2018-12-23T12:23:25.240Z,90.97
2018-12-23T12:24:25.229Z,88.92
2018-12-23T12:25:25.218Z,89.84
2018-12-23T12:26:25.208Z,89.74
2018-12-23T12:27:25.198Z,87.11
2018-12-23T12:28:25.189Z,88.00
2018-12-23T12:29:25.174Z,89.23
2018-12-23T12:30:25.163Z,88.81
2018-12-23T12:31:25.152Z,88.51
2018-12-23T12:32:25.140Z,88.30
2018-12-23T12:33:25.129Z,86.56
2018-12-23T12:34:25.120Z,87.17
2018-12-23T12:35:25.109Z,88.67
2018-12-23T12:36:25.096Z,88.98
2018-12-23T12:37:25.142Z,86.87
2018-12-23T12:38:25.078Z,85.94
2018-12-23T12:39:25.065Z,88.47
2018-12-23T12:40:25.051Z,88.57
2018-12-23T12:41:25.041Z,87.85
2018-12-23T12:42:25.031Z,88.57
2018-12-23T12:43:25.020Z,88.72
2018-12-23T12:44:25.041Z,88.40
2018-12-23T12:45:25.130Z,87.38
2018-12-23T12:46:24.989Z,87.17
2018-12-23T12:47:24.979Z,88.40
2018-12-23T12:48:24.969Z,87.44
2018-12-23T12:49:24.954Z,87.95
2018-12-23T12:50:24.957Z,88.10
2018-12-23T12:51:24.929Z,88.81
2018-12-23T12:52:24.918Z,89.43
2018-12-23T12:53:24.909Z,90.25